createdAt,value
2022-11-29T00:00:31.461Z,44.14
2022-11-29T00:05:37.018Z,43.49
2022-11-29T00:10:38.997Z,42.75
2022-11-29T00:15:41.000Z,42.59
2022-11-29T00:20:42.990Z,43.08
2022-11-29T00:25:44.915Z,43.14
2022-11-29T00:30:47.435Z,42.91
2022-11-29T00:35:49.384Z,42.90
2022-11-29T00:40:52.726Z,42.36
2022-11-29T00:45:54.792Z,42.91
2022-11-29T00:50:56.870Z,43.26
2022-11-29T00:55:58.968Z,42.78
2022-11-29T01:01:01.005Z,42.26
2022-11-29T01:06:11.643Z,41.92
2022-11-29T01:11:26.324Z,41.79
2022-11-29T01:16:30.320Z,41.49
2022-11-29T01:21:32.376Z,41.33
2022-11-29T01:26:34.376Z,40.80
2022-11-29T01:31:36.440Z,40.86
2022-11-29T01:36:38.430Z,40.90
2022-11-29T01:41:40.414Z,40.92
2022-11-29T01:46:44.734Z,42.17
2022-11-29T01:51:51.614Z,42.10
2022-11-29T01:56:53.658Z,42.27
2022-11-29T02:02:05.357Z,42.72
2022-11-29T02:07:08.028Z,42.90
2022-11-29T02:12:18.835Z,42.81
2022-11-29T02:17:45.013Z,42.70
2022-11-29T02:22:46.845Z,43.70
2022-11-29T02:28:06.862Z,43.15
2022-11-29T02:33:11.679Z,42.90
2022-11-29T02:38:58.009Z,43.68
2022-11-29T02:44:06.004Z,42.27
2022-11-29T02:49:31.863Z,42.03
2022-11-29T02:54:40.675Z,42.32
2022-11-29T03:00:06.556Z,42.13
2022-11-29T03:05:49.770Z,42.03
2022-11-29T03:10:51.646Z,43.70
2022-11-29T03:16:16.121Z,42.41
2022-11-29T03:21:27.156Z,44.06
2022-11-29T03:26:40.073Z,45.74
2022-11-29T03:31:58.381Z,45.36
2022-11-29T03:37:20.242Z,44.22
2022-11-29T03:42:34.167Z,43.97
2022-11-29T03:47:45.160Z,44.47
2022-11-29T03:52:54.910Z,44.14
2022-11-29T03:58:08.953Z,44.55
2022-11-29T04:03:29.765Z,44.39
2022-11-29T04:09:06.188Z,44.02
2022-11-29T04:14:20.178Z,43.85
2022-11-29T04:19:30.946Z,43.53
2022-11-29T04:25:02.604Z,43.89
2022-11-29T04:30:13.888Z,43.65
2022-11-29T04:35:35.533Z,43.58
2022-11-29T04:41:05.265Z,42.36
2022-11-29T04:46:36.553Z,44.41
2022-11-29T04:52:15.226Z,44.51
2022-11-29T04:57:42.228Z,43.11
2022-11-29T05:02:59.828Z,43.84
2022-11-29T05:08:39.479Z,44.50
2022-11-29T05:14:04.252Z,44.26
2022-11-29T05:19:25.398Z,44.92
2022-11-29T05:24:33.576Z,43.09
2022-11-29T05:29:46.347Z,42.82
2022-11-29T05:35:10.030Z,42.39
2022-11-29T05:40:24.032Z,42.56
2022-11-29T05:46:04.588Z,42.91
2022-11-29T05:51:28.278Z,43.63
2022-11-29T05:56:59.950Z,42.40
2022-11-29T06:02:20.816Z,42.84
2022-11-29T06:07:33.448Z,43.02
2022-11-29T06:12:38.810Z,42.93
2022-11-29T06:18:18.246Z,43.09
2022-11-29T06:23:36.656Z,43.13
2022-11-29T06:29:06.735Z,43.53
2022-11-29T06:34:30.960Z,41.79
2022-11-29T06:39:33.419Z,43.23
2022-11-29T06:44:35.641Z,43.83
2022-11-29T06:49:50.419Z,43.10
2022-11-29T06:55:10.000Z,43.90
2022-11-29T07:00:16.345Z,45.50
2022-11-29T07:05:35.456Z,44.15
2022-11-29T07:10:39.617Z,44.10
2022-11-29T07:15:55.400Z,46.37
2022-11-29T07:21:03.295Z,46.92
2022-11-29T07:26:15.225Z,47.27
2022-11-29T07:31:29.057Z,46.06
2022-11-29T07:36:40.031Z,46.94
2022-11-29T07:42:08.113Z,46.28
2022-11-29T07:47:10.517Z,45.83
2022-11-29T07:52:14.608Z,45.76
2022-11-29T07:57:16.613Z,46.63
2022-11-29T08:02:29.832Z,48.45
2022-11-29T08:07:35.636Z,49.72
2022-11-29T08:12:42.579Z,52.86
2022-11-29T08:17:44.671Z,50.17
2022-11-29T08:22:54.375Z,50.36
2022-11-29T08:27:56.507Z,51.80
2022-11-29T08:32:58.523Z,52.25
2022-11-29T08:38:00.514Z,55.17
2022-11-29T08:43:03.713Z,53.39
2022-11-29T08:48:06.208Z,58.17
2022-11-29T08:53:27.370Z,53.92
2022-11-29T08:58:29.610Z,56.59
2022-11-29T09:03:53.195Z,55.94
2022-11-29T09:08:59.138Z,56.38
2022-11-29T09:14:05.470Z,62.63
2022-11-29T09:19:08.150Z,62.04
2022-11-29T09:24:10.721Z,56.88
2022-11-29T09:29:12.664Z,62.23
2022-11-29T09:34:15.883Z,61.06
2022-11-29T09:39:18.064Z,64.42
2022-11-29T09:44:48.189Z,60.69
2022-11-29T09:49:59.274Z,61.53
2022-11-29T09:55:30.163Z,58.70
2022-11-29T10:00:37.977Z,57.45
2022-11-29T10:05:49.997Z,61.54
2022-11-29T10:10:58.622Z,60.09
2022-11-29T10:16:12.355Z,58.26
2022-11-29T10:21:21.047Z,59.72
2022-11-29T10:26:25.883Z,58.32
2022-11-29T10:31:44.123Z,59.55
2022-11-29T10:36:59.554Z,55.61
2022-11-29T10:42:03.744Z,54.54
2022-11-29T10:47:10.765Z,59.11
2022-11-29T10:52:23.575Z,57.60
2022-11-29T10:57:25.811Z,60.18
2022-11-29T11:02:28.623Z,60.20
2022-11-29T11:07:36.253Z,58.06
2022-11-29T11:12:38.448Z,55.90
2022-11-29T11:17:42.309Z,53.48
2022-11-29T11:22:44.662Z,59.05
2022-11-29T11:27:47.348Z,54.02
2022-11-29T11:33:08.330Z,53.31
2022-11-29T11:38:17.781Z,55.82
2022-11-29T11:43:21.887Z,52.07
2022-11-29T11:48:24.677Z,52.41
2022-11-29T11:53:26.676Z,54.96
2022-11-29T11:58:39.369Z,57.91
2022-11-29T12:03:45.174Z,54.40
2022-11-29T12:08:49.435Z,52.79
2022-11-29T12:13:56.887Z,53.34
2022-11-29T12:19:16.852Z,55.49
2022-11-29T12:24:27.730Z,55.09
2022-11-29T12:29:33.587Z,55.06
2022-11-29T12:35:02.802Z,54.93
2022-11-29T12:40:38.395Z,55.31
2022-11-29T12:45:57.617Z,56.23
2022-11-29T12:51:12.630Z,52.65
2022-11-29T12:56:25.780Z,65.95
2022-11-29T13:01:53.548Z,61.66
2022-11-29T13:07:20.905Z,68.24
2022-11-29T13:12:44.168Z,63.97
2022-11-29T13:18:11.597Z,63.46
2022-11-29T13:24:00.718Z,65.16
2022-11-29T13:29:03.136Z,67.80
2022-11-29T13:34:35.664Z,69.21
2022-11-29T13:39:40.467Z,63.66
2022-11-29T13:45:01.267Z,57.67
2022-11-29T13:50:25.754Z,57.20
2022-11-29T13:55:31.567Z,53.58
2022-11-29T14:00:36.677Z,50.85
2022-11-29T14:05:40.433Z,51.50
2022-11-29T14:10:49.204Z,48.06
2022-11-29T14:15:58.537Z,50.66
2022-11-29T14:21:00.647Z,51.45
2022-11-29T14:26:02.707Z,49.45
2022-11-29T14:31:06.535Z,48.91
2022-11-29T14:36:14.570Z,49.00
2022-11-29T14:41:24.610Z,50.33
2022-11-29T14:46:31.993Z,48.47
2022-11-29T14:51:34.535Z,51.57
2022-11-29T14:56:44.969Z,51.02
2022-11-29T15:01:49.611Z,48.50
2022-11-29T15:06:55.739Z,48.27
2022-11-29T15:12:02.435Z,53.22
2022-11-29T15:17:38.636Z,50.07
2022-11-29T15:22:45.658Z,51.50
2022-11-29T15:27:59.076Z,49.24
2022-11-29T15:33:04.650Z,48.70
2022-11-29T15:38:06.605Z,48.70
2022-11-29T15:43:22.927Z,47.28
2022-11-29T15:48:34.136Z,46.79
2022-11-29T15:53:50.038Z,47.08
2022-11-29T15:58:59.585Z,45.74
2022-11-29T16:04:02.181Z,45.81
2022-11-29T16:09:08.698Z,45.85
2022-11-29T16:14:18.937Z,45.46
2022-11-29T16:19:29.710Z,45.67
2022-11-29T16:24:34.280Z,46.70
2022-11-29T16:29:41.669Z,49.11
2022-11-29T16:34:45.078Z,47.43
2022-11-29T16:39:50.764Z,46.70
2022-11-29T16:45:02.013Z,45.79
2022-11-29T16:50:22.744Z,45.63
2022-11-29T16:55:24.807Z,45.26
2022-11-29T17:00:31.695Z,45.38
2022-11-29T17:05:33.734Z,44.28
2022-11-29T17:10:35.700Z,44.22
2022-11-29T17:15:38.039Z,44.04
2022-11-29T17:20:40.046Z,44.10
2022-11-29T17:25:42.330Z,45.91
2022-11-29T17:30:44.558Z,47.65
2022-11-29T17:35:47.246Z,46.99
2022-11-29T17:40:49.917Z,45.72
2022-11-29T17:45:52.342Z,45.05
2022-11-29T17:51:00.103Z,44.48
2022-11-29T17:56:07.815Z,44.31
2022-11-29T18:01:17.687Z,43.65
2022-11-29T18:06:25.272Z,43.60
2022-11-29T18:11:49.744Z,43.40
2022-11-29T18:16:52.188Z,43.20
2022-11-29T18:21:54.271Z,42.57
2022-11-29T18:26:56.219Z,42.53
2022-11-29T18:31:58.171Z,42.46
2022-11-29T18:37:00.151Z,42.82
2022-11-29T18:42:02.174Z,42.89
2022-11-29T18:47:04.175Z,43.27
2022-11-29T18:52:06.536Z,42.58
2022-11-29T18:57:08.512Z,42.56
2022-11-29T19:02:10.579Z,42.74
2022-11-29T19:07:12.548Z,42.53
2022-11-29T19:12:14.520Z,42.58
2022-11-29T19:17:16.522Z,42.17
2022-11-29T19:22:18.603Z,42.30
2022-11-29T19:27:21.285Z,42.39
2022-11-29T19:32:23.275Z,42.49
2022-11-29T19:37:25.385Z,42.36
2022-11-29T19:42:27.359Z,42.38
2022-11-29T19:47:29.384Z,42.55
2022-11-29T19:52:31.504Z,42.99
2022-11-29T19:57:33.505Z,42.78
2022-11-29T20:02:37.356Z,44.19
2022-11-29T20:07:39.589Z,44.23
2022-11-29T20:12:41.637Z,44.45
2022-11-29T20:17:43.570Z,43.89
2022-11-29T20:22:45.604Z,42.64
2022-11-29T20:27:47.605Z,43.00
2022-11-29T20:32:49.650Z,43.79
2022-11-29T20:38:14.054Z,43.59
2022-11-29T20:43:22.277Z,43.04
2022-11-29T20:48:24.852Z,44.29
2022-11-29T20:53:40.192Z,43.61
2022-11-29T20:58:42.146Z,44.09
2022-11-29T21:03:44.180Z,43.52
2022-11-29T21:08:46.147Z,43.77
2022-11-29T21:13:48.347Z,43.55
2022-11-29T21:18:59.865Z,45.52
2022-11-29T21:24:29.702Z,44.36
2022-11-29T21:29:31.846Z,44.68
2022-11-29T21:34:34.161Z,44.17
2022-11-29T21:39:36.175Z,43.82
2022-11-29T21:44:38.491Z,43.45
2022-11-29T21:49:40.759Z,45.82
2022-11-29T21:54:42.758Z,44.35
2022-11-29T21:59:44.774Z,43.20
2022-11-29T22:04:46.966Z,44.83
2022-11-29T22:09:48.977Z,45.09
2022-11-29T22:14:50.911Z,44.72
2022-11-29T22:19:52.845Z,44.59
2022-11-29T22:24:54.739Z,43.69
2022-11-29T22:29:56.659Z,43.76
2022-11-29T22:34:58.578Z,43.63
2022-11-29T22:40:00.553Z,44.23
2022-11-29T22:45:04.150Z,44.43
2022-11-29T22:50:06.573Z,43.82
2022-11-29T22:55:09.248Z,44.11
2022-11-29T23:00:13.595Z,45.28
2022-11-29T23:05:15.580Z,45.95
2022-11-29T23:10:17.500Z,44.34
2022-11-29T23:15:19.434Z,44.50
2022-11-29T23:20:21.346Z,44.25
2022-11-29T23:25:23.281Z,45.12
2022-11-29T23:30:25.199Z,44.46
2022-11-29T23:35:27.117Z,46.22
2022-11-29T23:40:29.045Z,45.46
2022-11-29T23:45:31.129Z,44.81
2022-11-29T23:50:33.273Z,44.75
2022-11-29T23:55:35.320Z,45.14
